createdAt,value
2018-07-20T00:00:51.719Z,4.33
2018-07-20T00:01:55.746Z,4.03
2018-07-20T00:02:59.812Z,3.20
2018-07-20T00:04:03.854Z,3.60
2018-07-20T00:05:08.025Z,3.27
2018-07-20T00:06:12.098Z,3.50
2018-07-20T00:07:16.210Z,4.35
2018-07-20T00:08:20.286Z,4.62
2018-07-20T00:09:24.375Z,3.72
2018-07-20T00:10:28.424Z,3.25
2018-07-20T00:11:32.485Z,3.30
2018-07-20T00:12:36.557Z,3.52
2018-07-20T00:13:40.660Z,3.60
2018-07-20T00:14:44.706Z,3.92
2018-07-20T00:15:48.812Z,3.70
2018-07-20T00:16:52.866Z,4.05
2018-07-20T00:17:56.933Z,4.08
2018-07-20T00:19:00.715Z,3.45
2018-07-20T00:20:05.226Z,4.92
2018-07-20T00:21:09.441Z,4.22
2018-07-20T00:22:16.445Z,4.25
2018-07-20T00:23:20.460Z,3.42
2018-07-20T00:24:24.514Z,3.50
2018-07-20T00:25:28.555Z,3.90
2018-07-20T00:26:32.682Z,5.67
2018-07-20T00:27:36.731Z,4.62
2018-07-20T00:28:40.808Z,3.87
2018-07-20T00:29:44.848Z,3.65
2018-07-20T00:30:48.912Z,3.80
2018-07-20T00:31:52.974Z,3.33
2018-07-20T00:32:57.046Z,3.52
2018-07-20T00:34:01.196Z,4.50
2018-07-20T00:35:05.300Z,7.72
2018-07-20T00:36:09.438Z,6.72
2018-07-20T00:37:13.440Z,8.48
2018-07-20T00:38:17.389Z,6.20
2018-07-20T00:39:21.491Z,4.78
2018-07-20T00:40:25.573Z,4.50
2018-07-20T00:41:29.687Z,3.72
2018-07-20T00:42:33.936Z,3.87
2018-07-20T00:43:38.051Z,3.83
2018-07-20T00:44:42.145Z,3.75
2018-07-20T00:45:46.232Z,3.77
2018-07-20T00:46:50.311Z,3.40
2018-07-20T00:47:54.464Z,3.35
2018-07-20T00:48:58.543Z,3.67
2018-07-20T00:50:02.751Z,3.87
2018-07-20T00:51:07.074Z,3.52
2018-07-20T00:52:11.145Z,5.28
2018-07-20T00:53:15.413Z,4.50
2018-07-20T00:54:19.465Z,3.30
2018-07-20T00:55:23.526Z,3.27
2018-07-20T00:56:27.621Z,3.58
2018-07-20T00:57:31.751Z,3.47
2018-07-20T00:58:35.781Z,3.70
2018-07-20T00:59:39.856Z,3.30
2018-07-20T01:00:43.943Z,4.03
2018-07-20T01:01:48.078Z,3.42
2018-07-20T01:02:52.170Z,3.60
2018-07-20T01:03:56.206Z,4.20
2018-07-20T01:05:00.308Z,3.62
2018-07-20T01:06:04.672Z,3.30
2018-07-20T01:07:08.792Z,3.20
2018-07-20T01:08:12.983Z,3.30
2018-07-20T01:09:17.051Z,3.50
2018-07-20T01:10:27.136Z,3.30
2018-07-20T01:11:37.374Z,4.65
2018-07-20T01:12:47.320Z,3.50
2018-07-20T01:13:52.067Z,3.22
2018-07-20T01:14:56.216Z,3.60
2018-07-20T01:16:00.112Z,3.02
2018-07-20T01:17:04.019Z,4.05
2018-07-20T01:18:07.826Z,3.85
2018-07-20T01:19:11.781Z,3.17
2018-07-20T01:20:16.360Z,3.50
2018-07-20T01:21:20.355Z,3.50
2018-07-20T01:22:24.511Z,3.45
2018-07-20T01:23:28.625Z,3.47
2018-07-20T01:24:32.671Z,3.67
2018-07-20T01:25:36.724Z,4.75
2018-07-20T01:26:40.749Z,3.22
2018-07-20T01:27:44.809Z,3.55
2018-07-20T01:28:49.372Z,3.40
2018-07-20T01:29:53.475Z,3.47
2018-07-20T01:30:57.585Z,3.10
2018-07-20T01:32:01.672Z,3.45
2018-07-20T01:33:05.734Z,3.50
2018-07-20T01:34:09.793Z,3.87
2018-07-20T01:35:13.802Z,3.35
2018-07-20T01:36:17.920Z,4.00
2018-07-20T01:37:22.053Z,3.52
2018-07-20T01:38:26.120Z,3.47
2018-07-20T01:39:30.250Z,3.65
2018-07-20T01:40:34.292Z,3.25
2018-07-20T01:41:38.799Z,3.45
2018-07-20T01:42:42.979Z,3.58
2018-07-20T01:43:47.067Z,4.42
2018-07-20T01:44:51.190Z,3.60
2018-07-20T01:45:55.320Z,3.42
2018-07-20T01:46:59.411Z,3.02
2018-07-20T01:48:03.429Z,4.78
2018-07-20T01:49:07.443Z,3.35
2018-07-20T01:50:11.533Z,3.40
2018-07-20T01:51:15.598Z,3.95
2018-07-20T01:52:19.727Z,4.17
2018-07-20T01:53:23.876Z,3.65
2018-07-20T01:54:28.068Z,3.45
2018-07-20T01:55:32.115Z,3.50
2018-07-20T01:56:36.140Z,3.45
2018-07-20T01:57:41.009Z,4.10
2018-07-20T01:58:45.143Z,3.60
2018-07-20T01:59:49.373Z,3.70
2018-07-20T02:00:53.125Z,3.60
2018-07-20T02:01:57.048Z,3.52
2018-07-20T02:03:01.155Z,3.98
2018-07-20T02:04:05.221Z,3.83
2018-07-20T02:05:09.316Z,3.67
2018-07-20T02:06:13.347Z,3.45
2018-07-20T02:07:17.551Z,3.52
2018-07-20T02:08:21.599Z,3.42
2018-07-20T02:09:25.717Z,3.40
2018-07-20T02:10:29.790Z,3.30
2018-07-20T02:11:33.921Z,3.77
2018-07-20T02:12:38.088Z,3.72
2018-07-20T02:13:42.251Z,3.77
2018-07-20T02:14:46.349Z,3.42
2018-07-20T02:15:50.391Z,4.72
2018-07-20T02:16:54.556Z,3.60
2018-07-20T02:17:58.639Z,3.40
2018-07-20T02:19:03.038Z,3.60
2018-07-20T02:20:07.074Z,3.35
2018-07-20T02:21:11.191Z,3.47
2018-07-20T02:22:15.344Z,3.75
2018-07-20T02:23:19.951Z,5.25
2018-07-20T02:24:23.741Z,4.40
2018-07-20T02:25:27.644Z,4.22
2018-07-20T02:26:31.792Z,5.50
2018-07-20T02:27:35.830Z,4.45
2018-07-20T02:28:39.862Z,4.50
2018-07-20T02:29:44.110Z,3.98
2018-07-20T02:30:48.153Z,3.60
2018-07-20T02:31:52.425Z,4.12
2018-07-20T02:32:56.554Z,4.80
2018-07-20T02:34:00.665Z,5.08
2018-07-20T02:35:04.953Z,5.67
2018-07-20T02:36:08.970Z,6.17
2018-07-20T02:37:13.100Z,5.37
2018-07-20T02:38:17.193Z,4.65
2018-07-20T02:39:21.076Z,4.28
2018-07-20T02:40:24.980Z,3.60
2018-07-20T02:41:29.039Z,4.05
2018-07-20T02:42:33.222Z,3.30
2018-07-20T02:43:37.301Z,3.52
2018-07-20T02:44:41.439Z,3.22
2018-07-20T02:45:45.503Z,3.50
2018-07-20T02:46:49.588Z,3.50
2018-07-20T02:47:53.716Z,3.30
2018-07-20T02:48:57.797Z,4.28
2018-07-20T02:50:01.914Z,7.62
2018-07-20T02:51:05.989Z,6.20
2018-07-20T02:52:10.134Z,5.92
2018-07-20T02:53:14.230Z,5.53
2018-07-20T02:54:18.339Z,4.90
2018-07-20T02:55:22.391Z,4.08
2018-07-20T02:56:26.622Z,4.05
2018-07-20T02:57:30.645Z,3.65
2018-07-20T02:58:34.674Z,3.50
2018-07-20T02:59:38.893Z,3.70
2018-07-20T03:00:42.989Z,3.58
2018-07-20T03:01:46.756Z,3.47
2018-07-20T03:02:50.766Z,3.40
2018-07-20T03:03:54.843Z,3.40
2018-07-20T03:04:58.942Z,3.50
2018-07-20T03:06:03.214Z,3.40
2018-07-20T03:07:07.299Z,3.47
2018-07-20T03:08:11.351Z,3.60
2018-07-20T03:09:15.499Z,3.75
2018-07-20T03:10:19.607Z,3.27
2018-07-20T03:11:23.780Z,3.75
2018-07-20T03:12:27.903Z,4.03
2018-07-20T03:13:32.031Z,3.45
2018-07-20T03:14:36.113Z,3.20
2018-07-20T03:15:40.160Z,3.58
2018-07-20T03:16:44.283Z,4.70
2018-07-20T03:17:48.377Z,3.37
2018-07-20T03:18:52.520Z,3.70
2018-07-20T03:19:56.655Z,3.52
2018-07-20T03:21:00.575Z,3.60
2018-07-20T03:22:04.662Z,3.50
2018-07-20T03:23:08.918Z,3.42
2018-07-20T03:24:13.020Z,4.10
2018-07-20T03:25:17.123Z,3.87
2018-07-20T03:26:21.202Z,3.37
2018-07-20T03:27:25.241Z,3.60
2018-07-20T03:28:29.292Z,3.55
2018-07-20T03:29:33.442Z,3.60
2018-07-20T03:30:37.473Z,4.45
2018-07-20T03:31:41.544Z,4.08
2018-07-20T03:32:45.797Z,3.60
2018-07-20T03:33:49.808Z,4.00
2018-07-20T03:34:53.933Z,3.65
2018-07-20T03:35:58.060Z,4.65
2018-07-20T03:37:02.225Z,3.70
2018-07-20T03:38:06.375Z,4.17
2018-07-20T03:39:10.928Z,4.05
2018-07-20T03:40:15.135Z,4.75
2018-07-20T03:41:19.316Z,4.17
2018-07-20T03:42:23.406Z,3.60
2018-07-20T03:43:27.498Z,3.72
2018-07-20T03:44:31.589Z,3.47
2018-07-20T03:45:35.794Z,3.92
2018-07-20T03:46:40.004Z,4.50
2018-07-20T03:47:44.113Z,3.98
2018-07-20T03:48:48.171Z,3.45
2018-07-20T03:49:52.360Z,3.60
2018-07-20T03:50:56.496Z,3.80
2018-07-20T03:52:00.592Z,3.98
2018-07-20T03:53:04.768Z,3.80
2018-07-20T03:54:08.887Z,3.60
2018-07-20T03:55:12.981Z,3.40
2018-07-20T03:56:17.043Z,4.83
2018-07-20T03:57:21.099Z,3.90
2018-07-20T03:58:25.192Z,3.80
2018-07-20T03:59:29.246Z,3.72
2018-07-20T04:00:33.465Z,3.80
2018-07-20T04:01:37.547Z,3.87
2018-07-20T04:02:41.649Z,3.70
2018-07-20T04:03:45.748Z,4.10
2018-07-20T04:04:49.604Z,3.60
2018-07-20T04:05:53.290Z,3.58
2018-07-20T04:06:57.223Z,3.98
2018-07-20T04:08:01.493Z,4.75
2018-07-20T04:09:07.604Z,3.80
2018-07-20T04:10:12.020Z,3.92
2018-07-20T04:11:16.056Z,3.83
2018-07-20T04:12:20.162Z,4.12
2018-07-20T04:13:24.236Z,4.17
2018-07-20T04:14:28.313Z,4.08
2018-07-20T04:15:32.399Z,4.97
2018-07-20T04:16:36.677Z,3.55
2018-07-20T04:17:45.757Z,3.62
2018-07-20T04:18:49.903Z,4.03
2018-07-20T04:19:54.001Z,3.58
2018-07-20T04:20:58.171Z,3.95
2018-07-20T04:22:02.595Z,3.58
2018-07-20T04:23:06.429Z,3.77
2018-07-20T04:24:10.408Z,3.75
2018-07-20T04:25:14.549Z,3.75
2018-07-20T04:26:18.822Z,4.33
2018-07-20T04:27:23.150Z,4.08
2018-07-20T04:28:27.281Z,4.10
2018-07-20T04:29:31.538Z,3.55
2018-07-20T04:30:35.601Z,4.17
2018-07-20T04:31:39.718Z,3.80
2018-07-20T04:32:44.011Z,3.70
2018-07-20T04:33:48.274Z,3.80
2018-07-20T04:34:52.672Z,3.55
2018-07-20T04:35:56.813Z,4.08
2018-07-20T04:37:01.051Z,3.90
2018-07-20T04:38:05.161Z,4.37
2018-07-20T04:39:11.579Z,4.03
2018-07-20T04:40:15.653Z,5.10
2018-07-20T04:41:19.763Z,3.58
2018-07-20T04:42:24.020Z,3.77
2018-07-20T04:43:28.110Z,4.20
2018-07-20T04:44:32.462Z,4.37
2018-07-20T04:45:36.546Z,3.52
2018-07-20T04:46:40.351Z,3.52
2018-07-20T04:47:45.145Z,4.53
2018-07-20T04:48:49.265Z,4.45
2018-07-20T04:49:53.926Z,3.87
2018-07-20T04:50:58.138Z,3.85
2018-07-20T04:52:02.418Z,5.12
2018-07-20T04:53:06.506Z,7.92
2018-07-20T04:54:10.616Z,6.15
2018-07-20T04:55:14.737Z,4.33
2018-07-20T04:56:18.812Z,6.17
2018-07-20T04:57:23.199Z,6.55
2018-07-20T04:58:27.339Z,5.65
2018-07-20T04:59:31.443Z,4.00
2018-07-20T05:00:35.616Z,5.55
2018-07-20T05:01:39.892Z,4.05
2018-07-20T05:02:44.405Z,4.00
2018-07-20T05:03:48.736Z,4.03
2018-07-20T05:04:53.032Z,4.00
2018-07-20T05:05:57.299Z,3.47
2018-07-20T05:07:01.468Z,3.83
2018-07-20T05:08:05.837Z,4.10
2018-07-20T05:09:10.470Z,4.05
2018-07-20T05:10:14.558Z,3.92
2018-07-20T05:11:18.744Z,4.22
2018-07-20T05:12:22.764Z,4.30
2018-07-20T05:13:27.024Z,3.95
2018-07-20T05:14:31.137Z,5.08
2018-07-20T05:15:35.241Z,4.10
2018-07-20T05:16:39.379Z,4.03
2018-07-20T05:17:44.077Z,4.25
2018-07-20T05:18:48.266Z,6.53
2018-07-20T05:19:52.715Z,4.65
2018-07-20T05:20:56.839Z,3.50
2018-07-20T05:22:01.249Z,3.72
2018-07-20T05:23:05.428Z,5.08
2018-07-20T05:24:09.602Z,4.78
2018-07-20T05:25:13.516Z,4.25
2018-07-20T05:26:17.529Z,3.52
2018-07-20T05:27:22.233Z,3.77
2018-07-20T05:28:26.358Z,4.00
2018-07-20T05:29:30.592Z,3.87
2018-07-20T05:30:35.371Z,3.60
2018-07-20T05:31:39.511Z,4.55
2018-07-20T05:32:44.058Z,4.37
2018-07-20T05:33:47.867Z,3.98
2018-07-20T05:34:52.320Z,3.80
2018-07-20T05:35:56.428Z,4.08
2018-07-20T05:37:00.644Z,4.40
2018-07-20T05:38:04.881Z,6.00
2018-07-20T05:39:09.977Z,3.92
2018-07-20T05:40:14.184Z,3.60
2018-07-20T05:41:18.120Z,5.05
2018-07-20T05:42:22.390Z,4.00
2018-07-20T05:43:26.502Z,3.85
2018-07-20T05:44:30.659Z,4.20
2018-07-20T05:45:34.940Z,4.45
2018-07-20T05:46:39.017Z,4.22
2018-07-20T05:47:43.794Z,4.00
2018-07-20T05:48:47.645Z,4.12
2018-07-20T05:49:51.852Z,3.87
2018-07-20T05:50:55.945Z,3.95
2018-07-20T05:52:00.565Z,4.00
2018-07-20T05:53:04.589Z,4.35
2018-07-20T05:54:08.580Z,3.70
2018-07-20T05:55:13.316Z,3.92
2018-07-20T05:56:17.445Z,3.52
2018-07-20T05:57:21.870Z,3.95
2018-07-20T05:58:26.138Z,4.35
2018-07-20T05:59:30.423Z,4.15
2018-07-20T06:00:34.684Z,4.00
2018-07-20T06:01:39.077Z,3.87
2018-07-20T06:02:43.720Z,3.87
2018-07-20T06:03:47.791Z,3.80
2018-07-20T06:04:52.410Z,4.15
2018-07-20T06:05:56.511Z,3.90
2018-07-20T06:07:00.857Z,3.67
2018-07-20T06:08:05.313Z,4.08
2018-07-20T06:09:11.554Z,3.95
2018-07-20T06:10:16.110Z,5.10
2018-07-20T06:11:20.313Z,3.65
2018-07-20T06:12:24.604Z,3.58
2018-07-20T06:13:28.916Z,3.60
2018-07-20T06:14:33.387Z,3.22
2018-07-20T06:15:37.688Z,3.58
2018-07-20T06:16:42.177Z,3.90
2018-07-20T06:17:46.925Z,3.40
2018-07-20T06:18:50.792Z,3.87
2018-07-20T06:19:54.943Z,3.83
2018-07-20T06:20:59.164Z,3.70
2018-07-20T06:22:03.237Z,3.77
2018-07-20T06:23:07.384Z,5.70
2018-07-20T06:24:12.658Z,3.85
2018-07-20T06:25:16.975Z,3.85
2018-07-20T06:26:21.644Z,3.90
2018-07-20T06:27:25.934Z,3.50
2018-07-20T06:28:29.981Z,3.90
2018-07-20T06:29:34.600Z,3.67
2018-07-20T06:30:39.224Z,3.70
2018-07-20T06:31:44.592Z,3.85
2018-07-20T06:32:49.227Z,3.27
2018-07-20T06:33:54.191Z,3.33
2018-07-20T06:34:58.603Z,3.37
2018-07-20T06:36:02.982Z,4.42
2018-07-20T06:37:08.618Z,4.70
2018-07-20T06:38:13.305Z,3.70
2018-07-20T06:39:18.438Z,4.40
2018-07-20T06:40:23.263Z,5.95
2018-07-20T06:41:27.906Z,4.08
2018-07-20T06:42:32.048Z,5.05
2018-07-20T06:43:35.992Z,3.52
2018-07-20T06:44:40.063Z,6.22
2018-07-20T06:45:45.417Z,3.70
2018-07-20T06:46:49.707Z,4.03
2018-07-20T06:47:54.126Z,3.55
2018-07-20T06:48:58.716Z,3.40
2018-07-20T06:50:07.662Z,4.58
2018-07-20T06:51:12.325Z,4.20
2018-07-20T06:52:17.025Z,6.70
2018-07-20T06:53:22.153Z,3.65
2018-07-20T06:54:26.489Z,4.75
2018-07-20T06:55:30.707Z,3.92
2018-07-20T06:56:35.224Z,5.78
2018-07-20T06:57:39.588Z,4.03
2018-07-20T06:58:43.820Z,3.37
2018-07-20T06:59:48.713Z,4.28
2018-07-20T07:00:53.356Z,3.40
2018-07-20T07:01:58.335Z,4.03
2018-07-20T07:03:02.765Z,3.62
2018-07-20T07:04:07.906Z,2.80
2018-07-20T07:05:13.075Z,3.50
2018-07-20T07:06:17.535Z,5.20
2018-07-20T07:07:23.125Z,4.37
2018-07-20T07:08:27.376Z,4.87
2018-07-20T07:09:32.234Z,4.53
2018-07-20T07:10:36.496Z,4.08
2018-07-20T07:11:41.252Z,7.83
2018-07-20T07:12:45.820Z,10.45
2018-07-20T07:13:50.069Z,5.30
2018-07-20T07:14:55.831Z,5.90
2018-07-20T07:16:00.706Z,4.20
2018-07-20T07:17:05.478Z,6.42
2018-07-20T07:18:09.818Z,7.92
2018-07-20T07:19:14.583Z,4.47
2018-07-20T07:20:20.092Z,5.75
2018-07-20T07:21:24.841Z,3.77
2018-07-20T07:22:29.181Z,7.78
2018-07-20T07:23:35.450Z,3.42
2018-07-20T07:24:40.584Z,3.62
2018-07-20T07:25:44.955Z,4.65
2018-07-20T07:26:49.714Z,3.42
2018-07-20T07:27:54.643Z,4.28
2018-07-20T07:28:59.055Z,7.90
2018-07-20T07:30:03.878Z,3.60
2018-07-20T07:31:09.608Z,5.40
2018-07-20T07:32:13.760Z,6.22
2018-07-20T07:33:18.266Z,4.95
2018-07-20T07:34:22.438Z,6.05
2018-07-20T07:35:27.229Z,3.65
2018-07-20T07:36:31.577Z,3.42
2018-07-20T07:37:35.755Z,4.28
2018-07-20T07:38:40.231Z,3.22
2018-07-20T07:39:45.132Z,3.10
2018-07-20T07:40:50.708Z,3.17
2018-07-20T07:41:56.031Z,5.08
2018-07-20T07:43:01.472Z,4.97
2018-07-20T07:44:08.446Z,3.40
2018-07-20T07:45:13.614Z,3.70
2018-07-20T07:46:17.682Z,4.50
2018-07-20T07:47:23.055Z,3.37
2018-07-20T07:48:28.511Z,3.45
2018-07-20T07:49:33.357Z,3.60
2018-07-20T07:50:38.808Z,5.12
2018-07-20T07:51:43.507Z,5.00
2018-07-20T07:52:48.054Z,3.50
2018-07-20T07:53:52.494Z,3.27
2018-07-20T07:54:57.471Z,3.30
2018-07-20T07:56:02.002Z,3.50
2018-07-20T07:57:06.942Z,3.33
2018-07-20T07:58:11.521Z,3.70
2018-07-20T07:59:15.843Z,5.67
2018-07-20T08:00:20.086Z,4.15
2018-07-20T08:01:24.546Z,3.70
2018-07-20T08:02:29.000Z,3.17
2018-07-20T08:03:33.217Z,5.07
2018-07-20T08:04:37.513Z,3.93
2018-07-20T08:05:42.158Z,3.30
2018-07-20T08:06:46.746Z,5.03
2018-07-20T08:07:51.871Z,3.50
2018-07-20T08:08:56.279Z,3.57
2018-07-20T08:10:01.318Z,5.80
2018-07-20T08:11:05.377Z,3.87
2018-07-20T08:12:09.954Z,4.20
2018-07-20T08:13:14.563Z,3.60
2018-07-20T08:14:19.431Z,3.70
2018-07-20T08:15:24.071Z,4.13
2018-07-20T08:16:28.413Z,3.97
2018-07-20T08:17:33.943Z,3.50
2018-07-20T08:18:38.631Z,3.87
2018-07-20T08:19:43.081Z,3.30
2018-07-20T08:20:47.896Z,4.77
2018-07-20T08:21:52.701Z,3.87
2018-07-20T08:22:57.355Z,3.77
2018-07-20T08:24:02.032Z,3.47
2018-07-20T08:25:06.692Z,4.43
2018-07-20T08:26:11.393Z,3.30
2018-07-20T08:27:16.081Z,2.97
2018-07-20T08:28:20.569Z,4.07
2018-07-20T08:29:25.496Z,3.07
2018-07-20T08:30:30.449Z,3.07
2018-07-20T08:31:35.169Z,3.40
2018-07-20T08:32:39.949Z,3.53
2018-07-20T08:33:44.310Z,3.00
2018-07-20T08:34:48.671Z,3.57
2018-07-20T08:35:53.476Z,3.10
2018-07-20T08:36:58.835Z,4.23
2018-07-20T08:38:03.245Z,3.03
2018-07-20T08:39:08.644Z,3.70
2018-07-20T08:40:13.391Z,3.47
2018-07-20T08:41:18.103Z,2.90
2018-07-20T08:42:23.573Z,3.03
2018-07-20T08:43:28.174Z,3.57
2018-07-20T08:44:33.126Z,3.20
2018-07-20T08:45:38.251Z,3.20
2018-07-20T08:46:42.783Z,3.40
2018-07-20T08:47:47.236Z,2.90
2018-07-20T08:48:51.726Z,2.80
2018-07-20T08:49:56.455Z,2.90
2018-07-20T08:51:00.968Z,2.93
2018-07-20T08:52:05.421Z,4.90
2018-07-20T08:53:10.282Z,2.90
2018-07-20T08:54:15.086Z,3.00
2018-07-20T08:55:19.429Z,3.20
2018-07-20T08:56:24.015Z,2.87
2018-07-20T08:57:28.626Z,2.83
2018-07-20T08:58:33.337Z,9.33
2018-07-20T08:59:37.990Z,7.80
2018-07-20T09:00:42.539Z,5.63
2018-07-20T09:01:47.246Z,2.97
2018-07-20T09:02:52.194Z,3.00
2018-07-20T09:03:56.854Z,3.20
2018-07-20T09:05:02.177Z,3.10
2018-07-20T09:06:06.807Z,3.60
2018-07-20T09:07:11.245Z,4.00
2018-07-20T09:08:16.143Z,3.53
2018-07-20T09:09:20.783Z,2.80
2018-07-20T09:10:25.446Z,4.13
2018-07-20T09:11:30.637Z,3.40
2018-07-20T09:12:35.715Z,3.20
2018-07-20T09:13:40.431Z,3.60
2018-07-20T09:14:45.022Z,5.53
2018-07-20T09:15:49.964Z,3.50
2018-07-20T09:16:54.413Z,2.70
2018-07-20T09:17:58.843Z,3.53
2018-07-20T09:19:04.561Z,3.07
2018-07-20T09:20:09.134Z,2.57
2018-07-20T09:21:13.015Z,2.97
2018-07-20T09:22:17.640Z,3.97
2018-07-20T09:23:22.459Z,2.90
2018-07-20T09:24:26.829Z,2.60
2018-07-20T09:25:32.645Z,2.70
2018-07-20T09:26:37.206Z,2.90
2018-07-20T09:27:42.291Z,2.37
2018-07-20T09:28:47.148Z,4.30
2018-07-20T09:29:52.097Z,3.63
2018-07-20T09:30:56.635Z,3.30
2018-07-20T09:32:01.735Z,2.70
2018-07-20T09:33:06.473Z,2.97
2018-07-20T09:34:10.956Z,2.60
2018-07-20T09:35:15.680Z,2.70
2018-07-20T09:36:20.046Z,3.57
2018-07-20T09:37:24.450Z,3.67
2018-07-20T09:38:29.424Z,2.97
2018-07-20T09:39:35.178Z,3.20
2018-07-20T09:40:40.078Z,4.00
2018-07-20T09:41:45.011Z,2.97
2018-07-20T09:42:49.417Z,2.60
2018-07-20T09:43:53.900Z,2.23
2018-07-20T09:44:58.137Z,2.80
2018-07-20T09:46:02.379Z,3.10
2018-07-20T09:47:07.389Z,2.83
2018-07-20T09:48:12.548Z,2.43
2018-07-20T09:49:17.042Z,3.53
2018-07-20T09:50:21.941Z,3.27
2018-07-20T09:51:27.392Z,2.90
2018-07-20T09:52:31.786Z,6.90
2018-07-20T09:53:36.342Z,2.53
2018-07-20T09:54:40.739Z,2.90
2018-07-20T09:55:45.372Z,3.07
2018-07-20T09:56:50.795Z,2.33
2018-07-20T09:57:55.632Z,2.93
2018-07-20T09:59:00.555Z,3.73
2018-07-20T10:00:05.882Z,3.33
2018-07-20T10:01:10.309Z,3.17
2018-07-20T10:02:15.144Z,3.00
2018-07-20T10:03:22.460Z,2.67
2018-07-20T10:04:28.446Z,2.97
2018-07-20T10:05:34.741Z,4.40
2018-07-20T10:06:39.986Z,3.77
2018-07-20T10:07:45.170Z,2.97
2018-07-20T10:08:51.836Z,4.13
2018-07-20T10:09:57.775Z,2.47
2018-07-20T10:11:03.079Z,3.13
2018-07-20T10:12:08.891Z,2.83
2018-07-20T10:13:16.423Z,2.60
2018-07-20T10:14:25.870Z,2.53
2018-07-20T10:15:35.008Z,2.70
2018-07-20T10:16:41.115Z,4.17
2018-07-20T10:17:47.131Z,2.37
2018-07-20T10:18:51.942Z,4.40
2018-07-20T10:19:57.827Z,2.90
2018-07-20T10:21:03.015Z,3.57
2018-07-20T10:22:08.408Z,4.47
2018-07-20T10:23:14.356Z,2.63
2018-07-20T10:24:19.502Z,4.10
2018-07-20T10:25:26.867Z,2.90
2018-07-20T10:26:32.399Z,2.80
2018-07-20T10:27:38.113Z,3.60
2018-07-20T10:28:43.324Z,3.17
2018-07-20T10:29:48.853Z,3.03
2018-07-20T10:30:54.018Z,2.80
2018-07-20T10:31:58.562Z,3.23
2018-07-20T10:33:03.724Z,3.13
2018-07-20T10:34:09.618Z,2.83
2018-07-20T10:35:14.421Z,2.87
2018-07-20T10:36:19.408Z,2.50
2018-07-20T10:37:24.916Z,3.00
2018-07-20T10:38:31.818Z,3.63
2018-07-20T10:39:39.100Z,4.97
2018-07-20T10:40:45.797Z,4.20
2018-07-20T10:41:55.296Z,3.67
2018-07-20T10:43:01.707Z,3.57
2018-07-20T10:44:07.493Z,3.07
2018-07-20T10:45:12.653Z,3.23
2018-07-20T10:46:18.590Z,2.70
2018-07-20T10:47:25.026Z,3.00
2018-07-20T10:48:32.518Z,3.50
2018-07-20T10:49:38.129Z,2.93
2018-07-20T10:50:43.633Z,2.90
2018-07-20T10:51:48.635Z,2.93
2018-07-20T10:52:53.838Z,3.93
2018-07-20T10:54:01.107Z,3.23
2018-07-20T10:55:07.262Z,2.70
2018-07-20T10:56:14.406Z,2.80
2018-07-20T10:57:21.209Z,2.70
2018-07-20T10:58:27.736Z,2.57
2018-07-20T10:59:32.770Z,2.40
2018-07-20T11:00:38.670Z,2.67
2018-07-20T11:01:45.302Z,2.83
2018-07-20T11:02:49.926Z,2.63
2018-07-20T11:03:56.965Z,2.70
2018-07-20T11:05:04.243Z,2.60
2018-07-20T11:06:10.868Z,3.17
2018-07-20T11:07:16.756Z,2.70
2018-07-20T11:08:23.366Z,2.83
2018-07-20T11:09:29.268Z,2.90
2018-07-20T11:10:34.086Z,2.47
2018-07-20T11:11:40.468Z,4.43
2018-07-20T11:12:46.234Z,2.60
2018-07-20T11:13:52.131Z,2.77
2018-07-20T11:14:58.207Z,3.17
2018-07-20T11:16:05.367Z,2.40
2018-07-20T11:17:11.730Z,3.23
2018-07-20T11:18:17.438Z,2.73
2018-07-20T11:19:22.987Z,2.43
2018-07-20T11:20:30.127Z,3.10
2018-07-20T11:21:37.475Z,2.73
2018-07-20T11:22:42.484Z,2.50
2018-07-20T11:23:48.916Z,3.57
2018-07-20T11:24:55.430Z,2.80
2018-07-20T11:26:00.856Z,2.53
2018-07-20T11:27:05.964Z,2.50
2018-07-20T11:28:11.226Z,2.63
2018-07-20T11:29:17.432Z,3.53
2018-07-20T11:30:22.974Z,2.60
2018-07-20T11:31:27.825Z,2.57
2018-07-20T11:32:32.912Z,3.87
2018-07-20T11:33:38.313Z,2.70
2018-07-20T11:34:45.604Z,2.60
2018-07-20T11:35:51.951Z,3.27
2018-07-20T11:36:58.226Z,2.60
2018-07-20T11:38:03.434Z,3.27
2018-07-20T11:39:09.984Z,2.43
2018-07-20T11:40:15.076Z,2.67
2018-07-20T11:41:19.668Z,3.10
2018-07-20T11:42:24.872Z,2.60
2018-07-20T11:43:29.823Z,2.60
2018-07-20T11:44:35.037Z,2.50
2018-07-20T11:45:40.537Z,2.37
2018-07-20T11:46:45.259Z,2.50
2018-07-20T11:47:49.792Z,2.45
2018-07-20T11:48:55.020Z,2.00
2018-07-20T11:49:59.073Z,2.50
2018-07-20T11:51:07.300Z,2.50
2018-07-20T11:52:13.497Z,2.33
2018-07-20T11:53:19.740Z,2.40
2018-07-20T11:54:24.893Z,2.22
2018-07-20T11:55:31.208Z,2.37
2018-07-20T11:56:36.552Z,2.40
2018-07-20T11:57:42.158Z,2.57
2018-07-20T11:58:49.413Z,2.20
2018-07-20T11:59:57.391Z,3.47
2018-07-20T12:01:05.039Z,2.53
2018-07-20T12:02:14.401Z,2.62
2018-07-20T12:03:19.016Z,2.47
2018-07-20T12:04:23.985Z,2.12
2018-07-20T12:05:28.800Z,2.30
2018-07-20T12:06:38.366Z,4.67
2018-07-20T12:07:48.263Z,4.50
2018-07-20T12:08:56.433Z,2.50
2018-07-20T12:10:03.361Z,2.42
2018-07-20T12:11:14.420Z,2.42
2018-07-20T12:12:19.908Z,2.33
2018-07-20T12:13:26.501Z,2.40
2018-07-20T12:14:33.274Z,2.50
2018-07-20T12:15:38.878Z,3.52
2018-07-20T12:16:43.241Z,3.35
2018-07-20T12:17:51.048Z,3.45
2018-07-20T12:18:57.143Z,3.02
2018-07-20T12:20:03.019Z,3.55
2018-07-20T12:21:08.892Z,2.80
2018-07-20T12:22:15.947Z,2.20
2018-07-20T12:23:21.281Z,2.55
2018-07-20T12:24:29.360Z,2.52
2018-07-20T12:25:36.724Z,2.60
2018-07-20T12:26:44.779Z,2.42
2018-07-20T12:27:51.254Z,2.92
2018-07-20T12:28:57.641Z,2.62
2018-07-20T12:30:06.022Z,2.47
2018-07-20T12:31:13.505Z,2.67
2018-07-20T12:32:21.022Z,3.70
2018-07-20T12:33:26.532Z,2.17
2018-07-20T12:34:31.620Z,2.60
2018-07-20T12:35:38.703Z,2.30
2018-07-20T12:36:45.950Z,2.37
2018-07-20T12:37:52.930Z,2.12
2018-07-20T12:39:02.573Z,2.58
2018-07-20T12:40:08.583Z,2.72
2018-07-20T12:41:13.369Z,2.52
2018-07-20T12:42:21.916Z,2.40
2018-07-20T12:43:26.562Z,2.45
2018-07-20T12:44:37.110Z,2.60
2018-07-20T12:45:42.297Z,2.00
2018-07-20T12:46:57.219Z,2.40
2018-07-20T12:48:06.810Z,1.90
2018-07-20T12:49:13.545Z,2.60
2018-07-20T12:50:21.962Z,2.65
2018-07-20T12:51:29.270Z,3.50
2018-07-20T12:52:34.223Z,2.60
2018-07-20T12:53:41.889Z,2.58
2018-07-20T12:54:51.364Z,2.70
2018-07-20T12:55:55.357Z,2.20
2018-07-20T12:57:00.311Z,2.33
2018-07-20T12:58:07.549Z,2.22
2018-07-20T12:59:14.452Z,2.45
2018-07-20T13:00:23.370Z,2.17
2018-07-20T13:01:31.473Z,3.17
2018-07-20T13:02:40.288Z,2.70
2018-07-20T13:03:47.772Z,3.05
2018-07-20T13:04:52.809Z,2.47
2018-07-20T13:05:57.147Z,2.58
2018-07-20T13:07:02.177Z,2.80
2018-07-20T13:08:07.469Z,3.62
2018-07-20T13:09:14.122Z,2.72
2018-07-20T13:10:19.829Z,2.80
2018-07-20T13:11:27.314Z,4.75
2018-07-20T13:12:34.312Z,2.50
2018-07-20T13:13:41.544Z,2.47
2018-07-20T13:14:48.521Z,2.35
2018-07-20T13:15:55.556Z,2.55
2018-07-20T13:17:01.151Z,2.60
2018-07-20T13:18:09.446Z,2.83
2018-07-20T13:19:17.302Z,2.92
2018-07-20T13:20:23.874Z,2.45
2018-07-20T13:21:28.267Z,3.52
2018-07-20T13:22:33.930Z,24.17
2018-07-20T13:23:39.588Z,17.05
2018-07-20T13:24:45.965Z,14.50
2018-07-20T13:25:51.055Z,11.97
2018-07-20T13:26:58.512Z,5.95
2018-07-20T13:28:03.314Z,4.45
2018-07-20T13:29:07.871Z,5.12
2018-07-20T13:30:15.023Z,5.87
2018-07-20T13:31:21.240Z,5.10
2018-07-20T13:32:27.609Z,3.12
2018-07-20T13:33:34.428Z,2.83
2018-07-20T13:34:39.415Z,2.62
2018-07-20T13:35:45.277Z,2.22
2018-07-20T13:36:49.827Z,2.50
2018-07-20T13:37:53.863Z,2.30
2018-07-20T13:39:00.081Z,4.45
2018-07-20T13:40:06.506Z,2.67
2018-07-20T13:41:11.848Z,2.83
2018-07-20T13:42:22.202Z,7.08
2018-07-20T13:43:27.953Z,2.87
2018-07-20T13:44:32.968Z,2.67
2018-07-20T13:45:38.804Z,3.05
2018-07-20T13:46:43.432Z,2.60
2018-07-20T13:47:52.058Z,2.72
2018-07-20T13:48:56.865Z,2.35
2018-07-20T13:50:07.784Z,2.92
2018-07-20T13:51:12.642Z,2.50
2018-07-20T13:52:17.923Z,2.85
2018-07-20T13:53:23.891Z,3.17
2018-07-20T13:54:30.653Z,2.22
2018-07-20T13:55:37.573Z,2.50
2018-07-20T13:56:43.510Z,3.05
2018-07-20T13:57:50.139Z,2.55
2018-07-20T13:58:54.814Z,2.83
2018-07-20T14:00:01.276Z,2.47
2018-07-20T14:01:10.257Z,2.45
2018-07-20T14:02:18.630Z,2.72
2018-07-20T14:03:26.599Z,2.52
2018-07-20T14:04:35.000Z,3.95
2018-07-20T14:05:40.452Z,2.62
2018-07-20T14:06:45.739Z,2.65
2018-07-20T14:07:51.510Z,3.17
2018-07-20T14:08:58.282Z,2.63
2018-07-20T14:10:02.694Z,2.60
2018-07-20T14:11:11.854Z,3.37
2018-07-20T14:12:23.736Z,3.57
2018-07-20T14:13:29.613Z,2.47
2018-07-20T14:14:35.456Z,2.50
2018-07-20T14:15:43.254Z,3.37
2018-07-20T14:16:53.572Z,2.50
2018-07-20T14:18:02.815Z,2.47
2018-07-20T14:19:10.790Z,2.70
2018-07-20T14:20:23.119Z,3.77
2018-07-20T14:21:29.257Z,2.43
2018-07-20T14:22:33.343Z,3.30
2018-07-20T14:23:40.932Z,2.40
2018-07-20T14:24:47.558Z,2.50
2018-07-20T14:25:54.465Z,2.70